createdAt,value
2017-08-29T00:01:29.431Z,78.70
2017-08-29T00:03:56.980Z,78.70
2017-08-29T00:06:24.547Z,80.20
2017-08-29T00:08:52.179Z,79.30
2017-08-29T00:11:19.743Z,78.80
2017-08-29T00:13:47.288Z,78.60
2017-08-29T00:16:14.862Z,79.10
2017-08-29T00:18:42.433Z,80.10
2017-08-29T00:21:10.003Z,78.80
2017-08-29T00:23:37.608Z,78.70
2017-08-29T00:26:05.178Z,80.40
2017-08-29T00:28:32.743Z,77.60
2017-08-29T00:31:00.340Z,79.10
2017-08-29T00:33:27.899Z,77.70
2017-08-29T00:35:55.463Z,81.50
2017-08-29T00:38:23.064Z,79.20
2017-08-29T00:40:50.608Z,78.00
2017-08-29T00:43:18.182Z,78.40
2017-08-29T00:45:45.797Z,80.50
2017-08-29T00:48:13.340Z,80.50
2017-08-29T00:50:40.904Z,78.80
2017-08-29T00:53:08.519Z,79.60
2017-08-29T00:55:36.073Z,80.80
2017-08-29T00:58:03.642Z,79.90
2017-08-29T01:00:31.416Z,79.00
2017-08-29T01:02:58.973Z,79.50
2017-08-29T01:05:26.548Z,79.40
2017-08-29T01:07:54.171Z,79.20
2017-08-29T01:10:21.781Z,78.30
2017-08-29T01:12:49.374Z,79.60
2017-08-29T01:15:17.007Z,79.50
2017-08-29T01:17:44.592Z,81.70
2017-08-29T01:20:12.176Z,82.00
2017-08-29T01:22:39.883Z,80.10
2017-08-29T01:25:07.483Z,80.30
2017-08-29T01:27:35.059Z,82.60
2017-08-29T01:30:02.691Z,80.40
2017-08-29T01:32:30.290Z,81.70
2017-08-29T01:34:57.911Z,82.50
2017-08-29T01:37:25.547Z,80.20
2017-08-29T01:39:53.128Z,81.90
2017-08-29T01:42:20.729Z,79.80
2017-08-29T01:44:48.303Z,81.40
2017-08-29T01:47:15.889Z,79.90
2017-08-29T01:49:43.455Z,79.20
2017-08-29T01:52:11.102Z,80.50
2017-08-29T01:54:38.688Z,81.80
2017-08-29T01:57:06.266Z,82.60
2017-08-29T01:59:33.900Z,82.70
2017-08-29T02:02:01.494Z,83.10
2017-08-29T02:04:29.097Z,82.60
2017-08-29T02:06:56.677Z,79.50
2017-08-29T02:09:24.295Z,80.10
2017-08-29T02:11:51.889Z,80.20
2017-08-29T02:14:19.477Z,79.80
2017-08-29T02:16:47.049Z,79.30
2017-08-29T02:19:14.895Z,80.40
2017-08-29T02:21:42.468Z,79.60
2017-08-29T02:24:10.098Z,83.20
2017-08-29T02:26:37.686Z,80.00
2017-08-29T02:29:05.996Z,80.00
2017-08-29T02:31:33.568Z,80.10
2017-08-29T02:34:01.112Z,79.10
2017-08-29T02:36:28.705Z,79.30
2017-08-29T02:38:56.261Z,80.00
2017-08-29T02:41:23.846Z,81.00
2017-08-29T02:43:51.399Z,80.20
2017-08-29T02:46:18.968Z,80.40
2017-08-29T02:48:46.557Z,79.90
2017-08-29T02:51:14.103Z,80.80
2017-08-29T02:53:41.703Z,80.80
2017-08-29T02:56:09.259Z,80.00
2017-08-29T02:58:36.894Z,81.50
2017-08-29T03:01:04.498Z,80.50
2017-08-29T03:03:32.067Z,80.10
2017-08-29T03:05:59.671Z,80.60
2017-08-29T03:08:27.231Z,81.70
2017-08-29T03:10:54.789Z,81.10
2017-08-29T03:13:22.404Z,81.00
2017-08-29T03:15:49.983Z,81.20
2017-08-29T03:18:17.551Z,80.70
2017-08-29T03:20:45.155Z,81.00
2017-08-29T03:23:12.715Z,80.10
2017-08-29T03:25:40.273Z,80.40
2017-08-29T03:28:07.878Z,81.00
2017-08-29T03:30:35.435Z,81.30
2017-08-29T03:33:02.985Z,79.30
2017-08-29T03:35:30.572Z,79.70
2017-08-29T03:37:58.164Z,80.20
2017-08-29T03:40:25.721Z,80.00
2017-08-29T03:42:53.331Z,79.80
2017-08-29T03:45:20.900Z,80.40
2017-08-29T03:47:48.467Z,81.50
2017-08-29T03:50:16.063Z,81.00
2017-08-29T03:52:43.655Z,81.10
2017-08-29T03:55:11.222Z,81.20
2017-08-29T03:57:38.813Z,82.20
2017-08-29T04:00:06.413Z,81.20
2017-08-29T04:02:33.961Z,80.90
2017-08-29T04:05:01.558Z,80.50
2017-08-29T04:07:29.104Z,80.80
2017-08-29T04:09:56.706Z,81.00
2017-08-29T04:12:24.315Z,80.90
2017-08-29T04:14:51.913Z,80.60
2017-08-29T04:17:19.468Z,80.70
2017-08-29T04:19:47.070Z,80.80
2017-08-29T04:22:14.630Z,81.10
2017-08-29T04:24:42.204Z,80.90
2017-08-29T04:27:09.793Z,80.30
2017-08-29T04:29:37.335Z,80.10
2017-08-29T04:32:04.901Z,80.60
2017-08-29T04:34:32.496Z,83.10
2017-08-29T04:37:00.058Z,84.40
2017-08-29T04:39:27.621Z,83.90
2017-08-29T04:41:55.203Z,84.40
2017-08-29T04:44:23.543Z,82.60
2017-08-29T04:46:51.099Z,82.60
2017-08-29T04:49:18.689Z,81.60
2017-08-29T04:51:46.247Z,83.30
2017-08-29T04:54:13.800Z,81.30
2017-08-29T04:56:41.396Z,81.40
2017-08-29T04:59:08.962Z,81.40
2017-08-29T05:01:36.569Z,81.00
2017-08-29T05:04:04.464Z,81.20
2017-08-29T05:06:32.053Z,81.10
2017-08-29T05:08:59.658Z,81.90
2017-08-29T05:11:27.241Z,83.80
2017-08-29T05:13:54.827Z,84.60
2017-08-29T05:16:22.402Z,84.60
2017-08-29T05:18:50.010Z,84.10
2017-08-29T05:21:17.611Z,83.60
2017-08-29T05:23:45.179Z,83.30
2017-08-29T05:26:12.773Z,85.90
2017-08-29T05:28:40.355Z,85.20
2017-08-29T05:31:07.970Z,85.50
2017-08-29T05:33:35.579Z,86.20
2017-08-29T05:36:03.159Z,86.80
2017-08-29T05:38:30.725Z,86.80
2017-08-29T05:40:58.441Z,86.90
2017-08-29T05:43:26.001Z,86.40
2017-08-29T05:45:53.561Z,87.20
2017-08-29T05:48:21.144Z,87.30
2017-08-29T05:50:48.781Z,87.40
2017-08-29T05:53:16.346Z,85.40
2017-08-29T05:55:43.936Z,87.30
2017-08-29T05:58:11.497Z,87.10
2017-08-29T06:00:39.063Z,86.30
2017-08-29T06:03:06.674Z,87.50
2017-08-29T06:05:34.234Z,87.50
2017-08-29T06:08:01.781Z,87.30
2017-08-29T06:10:29.400Z,88.00
2017-08-29T06:12:56.956Z,86.90
2017-08-29T06:15:24.518Z,86.40
2017-08-29T06:17:52.132Z,85.80
2017-08-29T06:20:19.705Z,85.10
2017-08-29T06:22:47.277Z,83.30
2017-08-29T06:25:14.879Z,82.00
2017-08-29T06:27:42.483Z,81.10
2017-08-29T06:30:10.055Z,80.30
2017-08-29T06:32:37.649Z,79.10
2017-08-29T06:35:05.206Z,77.90
2017-08-29T06:37:32.775Z,78.40
2017-08-29T06:40:00.392Z,78.20
2017-08-29T06:42:27.959Z,76.60
2017-08-29T06:44:55.516Z,76.20
2017-08-29T06:47:23.124Z,75.50
2017-08-29T06:49:50.718Z,73.60
2017-08-29T06:52:18.281Z,73.90
2017-08-29T06:54:45.881Z,73.40
2017-08-29T06:57:13.438Z,72.40
2017-08-29T06:59:41.060Z,71.60
2017-08-29T07:02:08.651Z,71.90
2017-08-29T07:04:36.227Z,71.10
2017-08-29T07:07:03.781Z,69.00
2017-08-29T07:09:31.371Z,69.00
2017-08-29T07:11:58.988Z,69.90
2017-08-29T07:14:26.567Z,71.10
2017-08-29T07:16:54.935Z,69.60
2017-08-29T07:19:22.504Z,69.60
2017-08-29T07:21:50.062Z,68.30
2017-08-29T07:24:17.649Z,68.20
2017-08-29T07:26:45.196Z,68.20
2017-08-29T07:29:13.536Z,66.10
2017-08-29T07:31:41.175Z,66.00
2017-08-29T07:34:08.742Z,65.80
2017-08-29T07:36:36.330Z,66.40
2017-08-29T07:39:03.949Z,65.50
2017-08-29T07:41:31.516Z,66.00
2017-08-29T07:43:59.080Z,65.30
2017-08-29T07:46:26.679Z,67.20
2017-08-29T07:48:54.272Z,67.40
2017-08-29T07:51:21.821Z,69.00
2017-08-29T07:53:50.177Z,67.80
2017-08-29T07:56:17.758Z,67.80
2017-08-29T07:58:45.356Z,68.50
2017-08-29T08:01:12.949Z,66.60
2017-08-29T08:03:40.501Z,68.10
2017-08-29T08:06:08.065Z,65.50
2017-08-29T08:08:35.859Z,68.10
2017-08-29T08:11:03.431Z,68.80
2017-08-29T08:13:31.010Z,67.70
2017-08-29T08:15:58.621Z,69.10
2017-08-29T08:18:26.199Z,64.60
2017-08-29T08:20:53.798Z,67.80
2017-08-29T08:23:21.399Z,67.60
2017-08-29T08:25:48.966Z,66.90
2017-08-29T08:28:16.556Z,67.50
2017-08-29T08:30:44.161Z,67.50
2017-08-29T08:33:11.713Z,65.50
2017-08-29T08:35:39.261Z,64.80
2017-08-29T08:38:06.854Z,66.90
2017-08-29T08:40:34.414Z,66.20
2017-08-29T08:43:01.975Z,66.20
2017-08-29T08:45:29.568Z,67.00
2017-08-29T08:47:57.130Z,62.90
2017-08-29T08:50:24.685Z,66.60
2017-08-29T08:52:52.270Z,67.70
2017-08-29T08:55:19.811Z,66.00
2017-08-29T08:57:47.378Z,62.80
2017-08-29T09:00:14.971Z,65.80
2017-08-29T09:02:42.555Z,66.60
2017-08-29T09:05:10.110Z,68.60
2017-08-29T09:07:37.691Z,63.90
2017-08-29T09:10:05.260Z,64.00
2017-08-29T09:12:32.812Z,61.10
2017-08-29T09:15:00.408Z,62.30
2017-08-29T09:17:27.976Z,61.90
2017-08-29T09:19:55.541Z,59.30
2017-08-29T09:22:23.126Z,57.40
2017-08-29T09:24:50.692Z,57.60
2017-08-29T09:27:18.263Z,61.00
2017-08-29T09:29:45.864Z,61.40
2017-08-29T09:32:13.417Z,58.00
2017-08-29T09:34:40.991Z,59.00
2017-08-29T09:37:08.578Z,59.30
2017-08-29T09:39:36.133Z,61.80
2017-08-29T09:42:03.774Z,61.50
2017-08-29T09:44:31.362Z,59.00
2017-08-29T09:46:58.922Z,58.50
2017-08-29T09:49:28.336Z,59.10
2017-08-29T09:51:55.942Z,58.20
2017-08-29T09:54:23.509Z,55.70
2017-08-29T09:56:51.061Z,56.30
2017-08-29T09:59:18.659Z,59.20
2017-08-29T10:01:46.209Z,57.00
2017-08-29T10:04:13.753Z,54.80
2017-08-29T10:06:41.351Z,56.80
2017-08-29T10:09:08.915Z,53.40
2017-08-29T10:11:36.487Z,56.40
2017-08-29T10:14:04.093Z,59.10
2017-08-29T10:16:31.664Z,58.20
2017-08-29T10:18:59.210Z,55.00
2017-08-29T10:21:26.802Z,57.20
2017-08-29T10:23:54.361Z,53.20
2017-08-29T10:26:21.920Z,52.90
2017-08-29T10:28:49.554Z,53.80
2017-08-29T10:31:17.116Z,56.30
2017-08-29T10:33:44.674Z,56.40
2017-08-29T10:36:12.292Z,56.40
2017-08-29T10:38:39.855Z,54.40
2017-08-29T10:41:07.417Z,55.20
2017-08-29T10:43:35.015Z,53.80
2017-08-29T10:46:02.580Z,51.50
2017-08-29T10:48:30.153Z,51.10
2017-08-29T10:50:57.779Z,53.10
2017-08-29T10:53:25.359Z,56.60
2017-08-29T10:55:52.932Z,55.80
2017-08-29T10:58:20.525Z,53.20
2017-08-29T11:00:48.063Z,54.50
2017-08-29T11:03:15.631Z,52.40
2017-08-29T11:05:43.246Z,53.10
2017-08-29T11:08:10.803Z,51.50
2017-08-29T11:10:38.358Z,53.70
2017-08-29T11:13:05.959Z,50.90
2017-08-29T11:15:33.528Z,52.10
2017-08-29T11:18:01.090Z,50.10
2017-08-29T11:20:28.714Z,50.20
2017-08-29T11:22:56.287Z,50.10
2017-08-29T11:25:23.855Z,49.70
2017-08-29T11:27:51.469Z,50.00
2017-08-29T11:30:19.044Z,51.40
2017-08-29T11:32:46.626Z,51.20
2017-08-29T11:35:14.254Z,49.00
2017-08-29T11:37:41.841Z,46.60
2017-08-29T11:40:09.398Z,51.90
2017-08-29T11:42:37.007Z,50.60
2017-08-29T11:45:05.335Z,49.60
2017-08-29T11:47:32.916Z,49.60
2017-08-29T11:50:00.540Z,49.70
2017-08-29T11:52:28.123Z,47.20
2017-08-29T11:54:55.689Z,49.80
2017-08-29T11:57:23.302Z,51.20
2017-08-29T11:59:50.874Z,50.10
2017-08-29T12:02:18.437Z,50.50
2017-08-29T12:04:46.026Z,50.30
2017-08-29T12:07:13.623Z,50.30
2017-08-29T12:09:41.193Z,50.50
2017-08-29T12:12:08.788Z,47.10
2017-08-29T12:14:36.351Z,47.80
2017-08-29T12:17:03.910Z,49.40
2017-08-29T12:19:31.502Z,46.10
2017-08-29T12:21:59.086Z,44.70
2017-08-29T12:24:26.650Z,47.60
2017-08-29T12:26:54.250Z,49.90
2017-08-29T12:29:21.796Z,48.80
2017-08-29T12:31:49.349Z,47.10
2017-08-29T12:34:16.937Z,45.70
2017-08-29T12:36:44.484Z,47.30
2017-08-29T12:39:12.050Z,46.60
2017-08-29T12:41:39.647Z,42.80
2017-08-29T12:44:07.219Z,45.40
2017-08-29T12:46:34.774Z,46.80
2017-08-29T12:49:02.366Z,43.70
2017-08-29T12:51:29.921Z,47.10
2017-08-29T12:53:57.471Z,48.80
2017-08-29T12:56:25.088Z,48.40
2017-08-29T12:58:52.645Z,48.20
2017-08-29T13:01:20.245Z,45.90
2017-08-29T13:03:47.819Z,46.90
2017-08-29T13:06:15.406Z,45.50
2017-08-29T13:08:42.971Z,43.60
2017-08-29T13:11:10.557Z,45.00
2017-08-29T13:13:38.113Z,42.20
2017-08-29T13:16:05.678Z,44.80
2017-08-29T13:18:33.264Z,46.10
2017-08-29T13:21:00.835Z,43.40
2017-08-29T13:23:28.413Z,42.80
2017-08-29T13:25:56.033Z,43.70
2017-08-29T13:28:23.590Z,44.90
2017-08-29T13:30:51.149Z,43.40
2017-08-29T13:33:18.762Z,42.40
2017-08-29T13:35:46.321Z,46.20
2017-08-29T13:38:13.869Z,42.40
2017-08-29T13:40:41.450Z,41.40
2017-08-29T13:43:09.103Z,41.50
2017-08-29T13:45:36.657Z,45.00
2017-08-29T13:48:04.241Z,44.30
2017-08-29T13:50:31.787Z,45.20
2017-08-29T13:52:59.346Z,42.30
2017-08-29T13:55:26.930Z,45.80
2017-08-29T13:57:54.482Z,43.90
2017-08-29T14:00:22.050Z,43.10
2017-08-29T14:02:49.643Z,42.80
2017-08-29T14:05:17.203Z,43.40
2017-08-29T14:07:44.770Z,41.80
2017-08-29T14:10:12.354Z,43.00
2017-08-29T14:12:39.928Z,43.40
2017-08-29T14:15:07.486Z,43.70
2017-08-29T14:17:35.062Z,41.50
2017-08-29T14:20:02.646Z,42.20
2017-08-29T14:22:30.213Z,43.90
2017-08-29T14:24:58.552Z,43.20
2017-08-29T14:27:26.114Z,43.20
2017-08-29T14:29:53.667Z,40.30
2017-08-29T14:32:21.247Z,42.70
2017-08-29T14:34:48.816Z,43.60
2017-08-29T14:37:16.364Z,41.80
2017-08-29T14:39:43.967Z,41.50
2017-08-29T14:42:11.534Z,44.20
2017-08-29T14:44:39.104Z,42.10
2017-08-29T14:47:18.755Z,43.10
2017-08-29T14:49:46.306Z,41.40
2017-08-29T14:52:13.865Z,42.50
2017-08-29T14:54:41.455Z,40.20
2017-08-29T14:57:10.519Z,43.10
2017-08-29T14:59:38.229Z,41.40
2017-08-29T15:02:05.866Z,43.70
2017-08-29T15:04:33.422Z,43.50
2017-08-29T15:07:01.692Z,41.00
2017-08-29T15:09:29.457Z,39.60
2017-08-29T15:11:57.588Z,42.90
2017-08-29T15:14:25.479Z,40.40
2017-08-29T15:16:53.100Z,42.40
2017-08-29T15:19:20.663Z,40.90
2017-08-29T15:21:48.993Z,40.50
2017-08-29T15:24:16.585Z,40.40
2017-08-29T15:26:44.174Z,39.50
2017-08-29T15:29:11.728Z,41.00
2017-08-29T15:31:40.095Z,43.50
2017-08-29T15:34:07.662Z,43.40
2017-08-29T15:36:35.242Z,42.50
2017-08-29T15:39:02.859Z,43.20
2017-08-29T15:41:30.407Z,42.00
2017-08-29T15:43:57.970Z,43.60
2017-08-29T15:46:25.557Z,44.50
2017-08-29T15:48:53.909Z,43.40
2017-08-29T15:51:21.470Z,43.50
2017-08-29T15:53:49.072Z,43.20
2017-08-29T15:56:16.620Z,43.30
2017-08-29T15:58:44.175Z,44.30
2017-08-29T16:01:11.760Z,44.70
2017-08-29T16:03:39.319Z,43.10
2017-08-29T16:06:06.867Z,43.50
2017-08-29T16:08:34.468Z,44.20
2017-08-29T16:11:02.023Z,46.10
2017-08-29T16:13:29.568Z,45.60
2017-08-29T16:15:57.146Z,45.80
2017-08-29T16:18:24.711Z,46.30
2017-08-29T16:20:52.286Z,46.60
2017-08-29T16:23:19.863Z,47.50
2017-08-29T16:25:47.422Z,47.40
2017-08-29T16:28:15.000Z,47.40
2017-08-29T16:30:42.587Z,48.30
2017-08-29T16:33:10.149Z,48.30
2017-08-29T16:35:37.687Z,47.10
2017-08-29T16:38:05.263Z,47.70
2017-08-29T16:40:32.821Z,48.80
2017-08-29T16:43:01.257Z,49.40
2017-08-29T16:45:28.835Z,48.40
2017-08-29T16:47:56.415Z,49.30
2017-08-29T16:50:23.973Z,48.50
2017-08-29T16:52:51.566Z,49.00
2017-08-29T16:55:19.124Z,48.10
2017-08-29T16:57:46.690Z,48.10
2017-08-29T17:00:14.267Z,48.10
2017-08-29T17:02:41.982Z,48.90
2017-08-29T17:05:09.536Z,49.50
2017-08-29T17:07:37.140Z,49.70
2017-08-29T17:10:04.694Z,50.10
2017-08-29T17:12:32.265Z,51.10
2017-08-29T17:14:59.869Z,51.10
2017-08-29T17:17:27.437Z,52.10
2017-08-29T17:19:55.004Z,53.70
2017-08-29T17:22:22.580Z,53.70
2017-08-29T17:24:50.895Z,55.30
2017-08-29T17:27:18.456Z,55.30
2017-08-29T17:29:46.055Z,54.90
2017-08-29T17:32:14.579Z,55.30
2017-08-29T17:34:44.338Z,55.80
2017-08-29T17:37:13.789Z,56.00
2017-08-29T17:39:41.344Z,56.00
2017-08-29T17:42:08.896Z,57.20
2017-08-29T17:44:36.496Z,56.80
2017-08-29T17:47:04.060Z,57.50
2017-08-29T17:49:31.621Z,57.80
2017-08-29T17:51:59.213Z,58.70
2017-08-29T17:54:26.769Z,58.70
2017-08-29T17:56:54.344Z,59.10
2017-08-29T17:59:21.934Z,59.20
2017-08-29T18:01:49.489Z,59.70
2017-08-29T18:04:17.069Z,60.20
2017-08-29T18:06:44.684Z,60.00
2017-08-29T18:09:12.254Z,60.60
2017-08-29T18:11:39.798Z,60.50
2017-08-29T18:14:07.395Z,61.10
2017-08-29T18:16:34.949Z,61.80
2017-08-29T18:19:02.515Z,61.50
2017-08-29T18:21:30.095Z,61.60
2017-08-29T18:23:57.657Z,62.40
2017-08-29T18:26:25.221Z,61.90
2017-08-29T18:28:52.822Z,62.70
2017-08-29T18:31:20.391Z,62.70
2017-08-29T18:33:47.967Z,63.10
2017-08-29T18:36:15.559Z,62.80
2017-08-29T18:38:43.116Z,62.50
2017-08-29T18:41:10.682Z,62.50
2017-08-29T18:43:38.265Z,62.70
2017-08-29T18:46:05.845Z,63.50
2017-08-29T18:48:33.421Z,63.60
2017-08-29T18:51:01.014Z,63.50
2017-08-29T18:53:28.577Z,64.20
2017-08-29T18:55:56.122Z,64.80
2017-08-29T18:58:23.719Z,65.40
2017-08-29T19:00:51.307Z,65.20
2017-08-29T19:03:18.883Z,66.30
2017-08-29T19:05:46.460Z,65.90
2017-08-29T19:08:14.021Z,65.60
2017-08-29T19:10:41.580Z,65.70
2017-08-29T19:13:09.193Z,65.70
2017-08-29T19:15:36.742Z,65.60
2017-08-29T19:18:04.329Z,65.60
2017-08-29T19:20:31.910Z,66.60
2017-08-29T19:22:59.473Z,66.20
2017-08-29T19:25:27.030Z,66.30
2017-08-29T19:27:54.631Z,67.50
2017-08-29T19:30:22.184Z,66.80
2017-08-29T19:32:49.781Z,66.60
2017-08-29T19:35:17.374Z,66.70
2017-08-29T19:37:44.934Z,66.80
2017-08-29T19:40:12.519Z,66.80
2017-08-29T19:42:40.115Z,66.50
2017-08-29T19:45:07.930Z,67.10
2017-08-29T19:47:35.545Z,67.70
2017-08-29T19:50:03.139Z,68.10
2017-08-29T19:52:30.715Z,67.80
2017-08-29T19:54:59.063Z,68.30
2017-08-29T19:57:26.653Z,68.10
2017-08-29T19:59:54.983Z,68.50
2017-08-29T20:02:22.825Z,68.00
2017-08-29T20:04:50.407Z,68.30
2017-08-29T20:07:17.985Z,68.90
2017-08-29T20:09:45.539Z,68.80
2017-08-29T20:12:13.138Z,68.80
2017-08-29T20:14:40.701Z,68.50
2017-08-29T20:17:08.261Z,69.00
2017-08-29T20:19:35.868Z,69.30
2017-08-29T20:22:03.420Z,68.60
2017-08-29T20:24:30.990Z,68.80
2017-08-29T20:26:58.578Z,69.20
2017-08-29T20:29:26.135Z,69.10
2017-08-29T20:31:53.703Z,69.00
2017-08-29T20:34:21.306Z,69.50
2017-08-29T20:36:48.869Z,69.90
2017-08-29T20:39:16.434Z,69.40
2017-08-29T20:41:44.039Z,69.50
2017-08-29T20:44:11.598Z,69.70
2017-08-29T20:46:39.148Z,70.20
2017-08-29T20:49:06.728Z,70.10
2017-08-29T20:51:34.285Z,70.30
2017-08-29T20:54:01.832Z,71.00
2017-08-29T20:56:29.425Z,71.40
2017-08-29T20:58:56.984Z,71.00
2017-08-29T21:01:24.542Z,71.10
2017-08-29T21:03:52.143Z,71.40
2017-08-29T21:06:19.698Z,71.30
2017-08-29T21:08:47.266Z,71.30
2017-08-29T21:11:14.870Z,71.10
2017-08-29T21:13:42.434Z,71.30
2017-08-29T21:16:10.764Z,71.70
2017-08-29T21:18:38.362Z,71.70
2017-08-29T21:21:05.908Z,72.20
2017-08-29T21:23:33.450Z,72.30
2017-08-29T21:26:01.038Z,72.20
2017-08-29T21:28:28.592Z,72.80
2017-08-29T21:30:56.157Z,72.60
2017-08-29T21:33:23.749Z,74.20
2017-08-29T21:35:51.314Z,72.90
2017-08-29T21:38:20.982Z,73.10
2017-08-29T21:40:50.025Z,74.10
2017-08-29T21:43:17.586Z,73.60
2017-08-29T21:45:45.194Z,72.50
2017-08-29T21:48:12.792Z,72.80
2017-08-29T21:50:40.349Z,73.70
2017-08-29T21:53:07.922Z,72.50
2017-08-29T21:55:35.527Z,72.90
2017-08-29T21:58:03.086Z,72.00
2017-08-29T22:00:30.658Z,72.60
2017-08-29T22:02:58.257Z,74.40
2017-08-29T22:05:25.813Z,74.10
2017-08-29T22:07:53.371Z,73.80
2017-08-29T22:10:20.977Z,74.30
2017-08-29T22:12:48.531Z,72.90
2017-08-29T22:15:16.083Z,74.10
2017-08-29T22:17:43.683Z,73.80
2017-08-29T22:20:11.255Z,72.80
2017-08-29T22:22:38.817Z,72.80
2017-08-29T22:25:06.413Z,74.80
2017-08-29T22:27:33.994Z,74.90
2017-08-29T22:30:01.564Z,73.90
2017-08-29T22:32:29.174Z,74.20
2017-08-29T22:34:56.746Z,74.90
2017-08-29T22:37:24.321Z,74.40
2017-08-29T22:39:51.900Z,74.60
2017-08-29T22:42:19.443Z,74.50
2017-08-29T22:44:47.007Z,74.80
2017-08-29T22:47:14.583Z,74.80
2017-08-29T22:49:42.159Z,75.30
2017-08-29T22:52:09.726Z,75.50
2017-08-29T22:54:37.311Z,74.30
2017-08-29T22:57:04.881Z,74.40
2017-08-29T22:59:32.456Z,73.70
2017-08-29T23:02:01.814Z,74.50
2017-08-29T23:04:31.012Z,74.30
2017-08-29T23:06:59.342Z,75.20
2017-08-29T23:09:26.928Z,75.20
2017-08-29T23:11:54.485Z,75.30
2017-08-29T23:14:22.062Z,77.00
2017-08-29T23:16:50.435Z,75.30
2017-08-29T23:19:17.984Z,75.30
2017-08-29T23:21:45.549Z,76.10
2017-08-29T23:24:13.132Z,76.10
2017-08-29T23:26:40.684Z,77.90
2017-08-29T23:29:08.260Z,78.10
2017-08-29T23:31:35.843Z,77.00
2017-08-29T23:34:03.401Z,77.10
2017-08-29T23:36:30.969Z,77.90
2017-08-29T23:38:58.583Z,79.20
2017-08-29T23:41:26.142Z,78.80
2017-08-29T23:43:53.709Z,79.20
2017-08-29T23:46:21.302Z,78.10
2017-08-29T23:48:48.857Z,78.10
2017-08-29T23:51:16.415Z,77.60
2017-08-29T23:53:43.995Z,78.50
2017-08-29T23:56:11.548Z,77.70
2017-08-29T23:58:39.099Z,78.20
